Time;durP1;ratioP1;P1;durP2;ratioP2;P2;SDS_P1;SDS_P2;PMS_P1;PMS_P2;Temp;Humidity;BMP_temperature;BMP_pressure;BME280_temperature;BME280_humidity;BME280_pressure;Samples;Min_cycle;Max_cycle;Signal;HPM_P1;HPM_P2
2023/07/16 00:00:26;;;;;;;;;5.40;4.80;;;;;27.34;44.03;100636.22;2096709;28;46561;-58
2023/07/16 00:01:27;;;;;;;;;5.00;5.00;;;;;27.38;44.43;100650.41;2096674;28;46178;-57
2023/07/16 00:02:27;;;;;;;;;5.75;4.50;;;;;27.39;44.29;100652.13;2104728;28;46217;-57
2023/07/16 00:03:27;;;;;;;;;4.00;4.00;;;;;27.25;44.30;100646.09;2096298;28;46354;-57
2023/07/16 00:04:28;;;;;;;;;2.00;1.50;;;;;27.19;44.75;100652.13;2105016;28;46054;-56
2023/07/16 00:05:28;;;;;;;;;5.75;4.00;;;;;27.15;44.80;100650.66;2105557;28;46003;-56
2023/07/16 00:06:28;;;;;;;;;7.50;5.00;;;;;27.14;44.53;100653.53;2105819;28;46514;-58
2023/07/16 00:07:29;;;;;;;;;6.75;6.75;;;;;27.12;44.48;100647.38;2105768;28;46426;-58
2023/07/16 00:08:29;;;;;;;;;9.25;7.75;;;;;27.09;44.50;100650.38;2106112;28;46405;-57
2023/07/16 00:09:29;;;;;;;;;6.00;6.00;;;;;27.07;45.07;100655.97;2096659;28;46603;-57
2023/07/16 00:10:32;;;;;;;;;5.00;4.50;;;;;27.06;44.47;100646.06;2096835;28;46574;-59
2023/07/16 00:11:33;;;;;;;;;6.20;6.00;;;;;27.05;44.68;100655.22;2105380;28;46262;-57
2023/07/16 00:12:33;;;;;;;;;5.00;5.00;;;;;27.06;45.13;100650.63;2105666;28;46758;-57
2023/07/16 00:13:33;;;;;;;;;5.00;5.00;;;;;27.21;44.39;100641.94;2105407;27;46201;-57
2023/07/16 00:14:34;;;;;;;;;6.75;4.00;;;;;27.22;44.56;100646.38;2105380;28;46239;-58
2023/07/16 00:15:34;;;;;;;;;3.00;3.00;;;;;27.22;44.85;100627.31;2105977;28;46517;-58
2023/07/16 00:16:34;;;;;;;;;4.25;3.75;;;;;27.21;44.56;100635.63;2105839;28;46363;-56
2023/07/16 00:17:35;;;;;;;;;6.50;5.00;;;;;27.20;44.66;100639.34;2105383;28;46847;-57
2023/07/16 00:18:35;;;;;;;;;5.25;4.25;;;;;27.19;44.98;100643.94;2105864;28;46653;-58
2023/07/16 00:19:35;;;;;;;;;6.25;4.75;;;;;27.20;44.45;100636.63;2105932;28;46477;-57
2023/07/16 00:20:35;;;;;;;;;5.25;4.00;;;;;27.19;45.03;100646.66;2105532;28;46158;-58
2023/07/16 00:21:37;;;;;;;;;5.00;4.25;;;;;27.17;45.12;100640.47;2096951;28;46186;-57
2023/07/16 00:22:38;;;;;;;;;3.20;3.20;;;;;27.03;45.27;100648.19;2096856;28;46335;-57
2023/07/16 00:23:39;;;;;;;;;7.00;6.20;;;;;27.14;45.22;100642.63;2105842;28;46667;-56
2023/07/16 00:24:39;;;;;;;;;7.75;6.25;;;;;27.14;44.96;100653.53;2087368;28;46715;-58
2023/07/16 00:25:39;;;;;;;;;5.75;5.25;;;;;27.13;45.46;100647.22;2088016;28;46333;-57
2023/07/16 00:26:40;;;;;;;;;6.00;6.00;;;;;27.12;45.14;100650.09;2096841;28;46412;-58
2023/07/16 00:27:40;;;;;;;;;4.50;3.25;;;;;27.11;44.95;100648.38;2102730;28;46262;-58
2023/07/16 00:28:40;;;;;;;;;5.75;5.75;;;;;27.11;45.83;100646.50;2105769;28;46259;-58
2023/07/16 00:29:40;;;;;;;;;6.25;5.75;;;;;27.10;45.53;100652.97;2105854;28;46854;-57
2023/07/16 00:30:41;;;;;;;;;6.00;5.25;;;;;27.07;45.15;100653.25;2105177;28;46286;-55
2023/07/16 00:31:41;;;;;;;;;5.25;5.25;;;;;27.05;45.41;100652.50;2087865;28;46394;-56
2023/07/16 00:32:41;;;;;;;;;5.50;5.50;;;;;27.04;45.63;100650.78;2087857;28;46441;-57
2023/07/16 00:33:42;;;;;;;;;6.75;6.00;;;;;27.02;45.89;100647.34;2105617;28;46341;-56
2023/07/16 00:34:42;;;;;;;;;4.75;4.75;;;;;27.02;46.26;100652.78;2105704;28;46243;-57
2023/07/16 00:35:50;;;;;;;;;6.00;4.25;;;;;27.02;45.71;100660.97;2105563;28;46363;-58
2023/07/16 00:36:50;;;;;;;;;5.20;5.20;;;;;27.01;46.64;100650.19;2105545;28;46371;-58
2023/07/16 00:37:51;;;;;;;;;5.50;5.50;;;;;26.97;46.29;100661.34;2105786;28;46534;-58
2023/07/16 00:38:51;;;;;;;;;5.00;3.00;;;;;26.96;46.56;100656.06;2106278;28;46319;-57
2023/07/16 00:39:52;;;;;;;;;6.25;6.25;;;;;26.94;46.79;100663.50;2106102;28;46471;-57
2023/07/16 00:40:52;;;;;;;;;5.00;5.00;;;;;26.95;46.78;100654.34;2096702;28;46309;-58
2023/07/16 00:41:52;;;;;;;;;6.75;4.75;;;;;26.95;46.22;100649.75;2096881;28;45510;-58
2023/07/16 00:42:53;;;;;;;;;7.75;5.75;;;;;26.95;46.64;100654.34;2105292;28;45537;-57
2023/07/16 00:43:54;;;;;;;;;5.00;5.00;;;;;26.89;47.27;100655.75;2105661;28;46653;-56
2023/07/16 00:44:54;;;;;;;;;6.40;6.00;;;;;26.89;46.91;100643.97;2105394;28;46559;-57
2023/07/16 00:45:55;;;;;;;;;5.00;4.25;;;;;26.86;47.30;100645.13;2105687;28;46668;-57
2023/07/16 00:46:56;;;;;;;;;5.00;5.00;;;;;26.89;46.86;100639.41;2105873;28;46811;-56
2023/07/16 00:47:57;;;;;;;;;7.00;5.80;;;;;26.88;46.65;100642.25;2105035;28;46847;-57
2023/07/16 00:48:57;;;;;;;;;5.00;5.00;;;;;26.86;47.21;100652.44;2105631;28;46561;-57
2023/07/16 00:49:57;;;;;;;;;2.75;2.75;;;;;26.85;47.49;100643.41;2105464;28;46674;-57
2023/07/16 00:51:01;;;;;;;;;5.75;5.75;;;;;26.87;47.73;100657.75;2105603;28;46607;-57
2023/07/16 00:52:02;;;;;;;;;6.00;6.00;;;;;26.86;47.43;100660.63;2096580;28;46436;-56
2023/07/16 00:53:03;;;;;;;;;5.00;5.00;;;;;26.84;47.77;100657.16;2096485;28;46209;-58
2023/07/16 00:54:04;;;;;;;;;6.50;5.25;;;;;26.83;47.64;100658.19;2095893;28;46250;-55
2023/07/16 00:55:06;;;;;;;;;12.00;9.80;;;;;26.78;47.82;100647.69;2096226;28;46797;-55
2023/07/16 00:56:08;;;;;;;;;6.00;5.00;;;;;26.81;47.57;100646.56;2105421;28;46278;-59
2023/07/16 00:57:08;;;;;;;;;5.40;5.00;;;;;26.77;47.84;100651.41;2096363;28;46365;-58
2023/07/16 00:58:09;;;;;;;;;6.75;5.50;;;;;26.74;47.58;100657.13;2096484;28;46700;-57
2023/07/16 00:59:09;;;;;;;;;6.00;5.25;;;;;26.77;47.58;100661.44;2105627;28;46283;-58
2023/07/16 01:00:11;;;;;;;;;6.50;6.50;;;;;26.79;48.29;100659.44;2105484;28;46812;-58
2023/07/16 01:01:11;;;;;;;;;5.80;5.40;;;;;26.77;47.89;100642.38;2087448;28;46402;-59
2023/07/16 01:02:12;;;;;;;;;4.75;4.00;;;;;26.77;48.01;100650.53;2087472;28;46068;-57
2023/07/16 01:03:14;;;;;;;;;5.25;5.25;;;;;26.76;47.69;100648.81;2103927;28;46394;-56
2023/07/16 01:04:14;;;;;;;;;6.80;5.60;;;;;26.70;48.56;100658.41;2096456;28;46605;-57
2023/07/16 01:05:14;;;;;;;;;7.00;5.50;;;;;26.71;48.56;100649.25;2096291;28;47238;-56
2023/07/16 01:06:22;;;;;;;;;5.75;5.50;;;;;26.50;48.53;100646.59;2101833;28;46516;-55
2023/07/16 01:07:25;;;;;;;;;6.80;6.00;;;;;26.50;48.75;100660.19;2105169;28;46960;-56
2023/07/16 01:08:32;;;;;;;;;6.00;6.00;;;;;26.48;49.28;100656.75;2105807;28;46515;-56
2023/07/16 01:09:36;;;;;;;;;4.60;4.60;;;;;26.47;49.37;100659.63;2105344;28;46338;-57
2023/07/16 01:10:41;;;;;;;;;5.00;5.00;;;;;26.47;48.83;100656.91;2106116;28;46769;-57
2023/07/16 01:11:43;;;;;;;;;6.00;6.00;;;;;26.42;49.16;100653.72;2105480;28;46187;-57
2023/07/16 01:12:45;;;;;;;;;6.20;5.20;;;;;26.40;49.58;100649.25;2105390;28;46786;-57
2023/07/16 01:13:45;;;;;;;;;7.60;7.00;;;;;26.39;49.70;100654.84;2105514;28;46705;-57
2023/07/16 01:14:46;;;;;;;;;6.00;6.00;;;;;26.40;49.89;100656.56;2104993;28;47185;-58
2023/07/16 01:15:47;;;;;;;;;7.25;7.25;;;;;26.39;50.27;100650.25;2105358;28;46445;-58
2023/07/16 01:16:47;;;;;;;;;5.00;5.00;;;;;26.38;49.92;100650.41;2105111;28;46208;-57
2023/07/16 01:17:47;;;;;;;;;6.00;5.50;;;;;26.36;50.25;100656.00;2105457;28;46811;-59
2023/07/16 01:18:48;;;;;;;;;6.00;5.50;;;;;26.35;49.68;100661.53;2105057;28;46161;-56
2023/07/16 01:19:48;;;;;;;;;7.00;7.00;;;;;26.32;50.04;100659.94;2105614;28;46504;-57
2023/07/16 01:20:49;;;;;;;;;7.25;4.50;;;;;26.31;50.45;100666.41;2105511;28;46303;-56
2023/07/16 01:21:55;;;;;;;;;6.50;6.00;;;;;26.31;50.43;100654.66;2087398;28;46089;-57
2023/07/16 01:22:58;;;;;;;;;6.60;5.20;;;;;26.27;49.92;100658.63;2080934;28;46829;-57
2023/07/16 01:24:28;;;;;;;;;5.20;5.20;;;;;26.29;49.94;100662.06;2101110;28;46390;-58
2023/07/16 01:26:02;;;;;;;;;7.40;7.00;;;;;26.27;50.19;100662.19;2105116;27;46747;-58
2023/07/16 01:27:21;;;;;;;;;5.40;5.40;;;;;26.26;50.29;100671.38;2105006;28;46655;-57
2023/07/16 01:28:37;;;;;;;;;6.00;6.00;;;;;26.24;50.48;100667.06;2105429;28;46749;-56
2023/07/16 01:29:51;;;;;;;;;7.00;7.00;;;;;26.23;50.41;100670.78;2105330;28;46620;-58
2023/07/16 01:30:55;;;;;;;;;6.60;5.80;;;;;26.20;51.06;100666.47;2105112;28;45690;-56
2023/07/16 01:31:59;;;;;;;;;7.20;6.20;;;;;26.19;50.47;100672.91;2105570;28;47146;-56
2023/07/16 01:33:02;;;;;;;;;5.00;5.00;;;;;26.19;50.62;100672.06;2104925;28;46425;-55
2023/07/16 01:34:04;;;;;;;;;7.40;6.60;;;;;26.18;50.77;100664.91;2105388;28;46302;-59
2023/07/16 01:35:06;;;;;;;;;7.80;7.80;;;;;26.15;51.52;100654.25;2105075;28;46792;-57
2023/07/16 01:36:07;;;;;;;;;8.20;6.00;;;;;26.12;51.01;100671.72;2105660;28;46657;-57
2023/07/16 01:37:08;;;;;;;;;8.00;7.20;;;;;26.05;51.44;100670.56;2104914;28;46433;-57
2023/07/16 01:38:11;;;;;;;;;7.00;7.00;;;;;26.06;52.12;100670.41;2105239;28;46372;-57
2023/07/16 01:39:11;;;;;;;;;9.20;8.20;;;;;26.03;51.95;100673.38;2105068;28;46360;-58
2023/07/16 01:40:12;;;;;;;;;8.00;7.00;;;;;26.02;51.98;100678.94;2096152;28;46379;-58
2023/07/16 01:41:12;;;;;;;;;7.00;7.00;;;;;25.99;51.97;100677.38;2096581;28;46337;-57
2023/07/16 01:42:13;;;;;;;;;8.00;7.00;;;;;25.98;51.48;100688.38;2105483;28;46551;-56
2023/07/16 01:43:14;;;;;;;;;8.00;5.75;;;;;25.98;52.15;100677.50;2105197;28;46916;-56
2023/07/16 01:44:14;;;;;;;;;7.00;7.00;;;;;25.95;52.01;100684.06;2105526;28;46607;-57
2023/07/16 01:45:14;;;;;;;;;6.00;6.00;;;;;25.94;51.83;100695.09;2105241;28;46680;-58
2023/07/16 01:46:14;;;;;;;;;7.00;6.33;;;;;25.94;52.55;100689.66;2105060;28;46261;-57
2023/07/16 01:47:22;;;;;;;;;7.25;6.00;;;;;25.95;52.78;100675.06;2105175;28;46446;-58
2023/07/16 01:48:36;;;;;;;;;10.40;10.40;;;;;25.91;52.74;100681.72;2105112;28;46272;-57
2023/07/16 01:49:38;;;;;;;;;8.40;7.20;;;;;25.85;52.42;100685.84;2095769;28;46713;-57
2023/07/16 01:50:38;;;;;;;;;7.20;7.00;;;;;25.86;52.77;100689.44;2096503;28;46719;-56
2023/07/16 01:51:39;;;;;;;;;6.50;5.50;;;;;25.86;52.95;100693.00;2096229;28;46192;-58
2023/07/16 01:52:39;;;;;;;;;8.50;8.50;;;;;25.88;52.89;100682.88;2096259;28;47045;-58
2023/07/16 01:53:40;;;;;;;;;8.50;6.50;;;;;25.89;53.23;100686.44;2104917;28;46588;-58
2023/07/16 01:54:41;;;;;;;;;9.40;9.00;;;;;25.87;52.72;100685.72;2105122;28;46748;-57
2023/07/16 01:55:41;;;;;;;;;9.75;8.75;;;;;25.86;52.92;100682.13;2105633;28;46437;-58
2023/07/16 01:56:41;;;;;;;;;6.00;6.00;;;;;25.86;52.68;100689.44;2104882;28;46100;-58
2023/07/16 01:57:42;;;;;;;;;7.25;7.00;;;;;25.87;52.78;100686.59;2105477;28;46400;-57
2023/07/16 01:58:42;;;;;;;;;7.25;7.00;;;;;25.87;53.03;100688.44;2105365;28;46554;-57
2023/07/16 01:59:42;;;;;;;;;6.25;6.25;;;;;25.88;53.00;100691.03;2104814;28;46179;-56
2023/07/16 02:00:43;;;;;;;;;10.25;7.50;;;;;25.87;53.31;100699.31;2096145;28;46176;-58
2023/07/16 02:01:43;;;;;;;;;6.75;6.75;;;;;25.84;53.36;100696.88;2096173;28;46182;-58
2023/07/16 02:02:43;;;;;;;;;7.50;7.50;;;;;25.83;53.61;100700.59;2104766;28;47047;-56
2023/07/16 02:03:44;;;;;;;;;7.25;7.25;;;;;25.79;53.09;100692.69;2105072;28;46673;-57
2023/07/16 02:04:44;;;;;;;;;7.00;6.00;;;;;25.75;53.21;100693.94;2105517;28;46525;-58
2023/07/16 02:05:44;;;;;;;;;10.50;9.25;;;;;25.77;53.17;100701.94;2096143;28;46140;-56
2023/07/16 02:06:45;;;;;;;;;9.25;9.25;;;;;25.75;53.92;100695.78;2096120;28;46728;-56
2023/07/16 02:07:45;;;;;;;;;7.00;6.25;;;;;25.73;54.04;100704.06;2104874;28;46770;-57
2023/07/16 02:08:46;;;;;;;;;7.25;7.25;;;;;25.70;53.41;100696.19;2104995;28;46646;-58
2023/07/16 02:09:46;;;;;;;;;6.75;6.75;;;;;25.75;53.89;100698.50;2105245;28;46152;-57
2023/07/16 02:10:49;;;;;;;;;9.00;7.00;;;;;25.75;54.12;100695.78;2104887;28;46603;-58
2023/07/16 02:11:50;;;;;;;;;8.80;5.20;;;;;25.72;53.78;100696.06;2105133;28;46689;-57
2023/07/16 02:12:50;;;;;;;;;7.50;7.00;;;;;25.68;54.31;100697.28;2105088;28;46397;-56
2023/07/16 02:13:50;;;;;;;;;9.50;8.00;;;;;25.68;53.69;100694.56;2105340;28;46096;-58
2023/07/16 02:14:51;;;;;;;;;8.00;8.00;;;;;25.67;54.02;100699.16;2104740;28;46552;-57
2023/07/16 02:15:51;;;;;;;;;10.00;8.50;;;;;25.69;54.48;100707.19;2105240;28;46470;-57
2023/07/16 02:16:51;;;;;;;;;6.50;6.00;;;;;25.68;54.25;100700.88;2104815;28;47004;-56
2023/07/16 02:17:51;;;;;;;;;6.75;6.75;;;;;25.66;54.58;100708.25;2104389;28;46659;-57
2023/07/16 02:18:52;;;;;;;;;8.25;7.75;;;;;25.69;54.66;100704.47;2105036;28;46629;-57
2023/07/16 02:19:52;;;;;;;;;5.25;5.25;;;;;25.72;54.31;100706.94;2105467;28;46621;-58
2023/07/16 02:20:52;;;;;;;;;9.50;8.50;;;;;25.69;54.84;100707.19;2104995;28;46820;-58
2023/07/16 02:21:54;;;;;;;;;9.75;6.25;;;;;25.70;54.75;100712.50;2104957;28;46335;-57
2023/07/16 02:22:54;;;;;;;;;10.00;8.60;;;;;25.67;54.72;100707.31;2105037;28;46638;-56
2023/07/16 02:23:55;;;;;;;;;6.00;6.00;;;;;25.69;54.61;100716.22;2104753;28;46476;-53
2023/07/16 02:24:55;;;;;;;;;9.00;8.00;;;;;25.68;54.60;100716.31;2104961;28;46546;-57
2023/07/16 02:25:55;;;;;;;;;8.00;8.00;;;;;25.66;54.69;100712.84;2104849;28;46614;-56
2023/07/16 02:26:55;;;;;;;;;7.00;7.00;;;;;25.64;54.77;100709.41;2105082;28;46453;-57
2023/07/16 02:27:56;;;;;;;;;8.00;8.00;;;;;25.70;55.03;100708.94;2104859;28;46680;-56
2023/07/16 02:28:56;;;;;;;;;6.00;6.00;;;;;25.64;54.89;100715.69;2104945;28;46517;-55
2023/07/16 02:29:57;;;;;;;;;7.75;6.50;;;;;25.68;54.85;100716.31;2104851;28;46435;-57
2023/07/16 02:30:58;;;;;;;;;6.75;6.75;;;;;25.61;55.28;100718.69;2104903;28;46339;-58
2023/07/16 02:31:58;;;;;;;;;6.20;6.20;;;;;25.58;54.87;100707.22;2105055;28;46967;-57
2023/07/16 02:32:58;;;;;;;;;7.25;7.25;;;;;25.60;55.42;100727.81;2104813;28;46468;-58
2023/07/16 02:33:59;;;;;;;;;11.00;8.00;;;;;25.61;55.39;100721.41;2104798;28;46597;-56
2023/07/16 02:35:00;;;;;;;;;6.50;6.50;;;;;25.59;55.05;100726.09;2104534;28;46424;-55
2023/07/16 02:36:00;;;;;;;;;8.75;7.75;;;;;25.53;54.95;100724.75;2105108;28;46502;-56
2023/07/16 02:37:00;;;;;;;;;6.25;5.75;;;;;25.59;54.98;100733.41;2104120;28;46443;-55
2023/07/16 02:38:01;;;;;;;;;5.50;5.50;;;;;25.58;55.13;100724.38;2104911;28;46192;-57
2023/07/16 02:39:01;;;;;;;;;5.00;4.75;;;;;25.57;55.38;100725.38;2104794;28;46186;-57
2023/07/16 02:40:02;;;;;;;;;8.50;8.50;;;;;25.59;55.41;100736.13;2105210;28;46706;-56
2023/07/16 02:41:02;;;;;;;;;8.00;6.40;;;;;25.60;55.53;100719.69;2104747;28;46916;-56
2023/07/16 02:42:06;;;;;;;;;7.00;7.00;;;;;25.61;55.10;100728.69;2104912;28;46596;-57
2023/07/16 02:43:06;;;;;;;;;5.80;5.80;;;;;25.58;55.43;100737.97;2104906;28;46296;-56
2023/07/16 02:44:08;;;;;;;;;5.00;5.00;;;;;25.57;54.97;100738.09;2105065;28;46110;-58
2023/07/16 02:45:09;;;;;;;;;5.20;5.00;;;;;25.56;55.71;100734.53;2104946;28;45720;-58
2023/07/16 02:46:09;;;;;;;;;5.00;5.00;;;;;25.54;55.71;100731.06;2086483;28;47024;-57
2023/07/16 02:47:11;;;;;;;;;9.75;8.25;;;;;25.52;55.24;100733.03;2087131;28;46536;-56
2023/07/16 02:48:11;;;;;;;;;8.00;8.00;;;;;25.49;55.50;100734.16;2104595;28;46592;-55
2023/07/16 02:49:11;;;;;;;;;9.75;7.50;;;;;25.50;55.67;100732.31;2105118;28;46663;-57
2023/07/16 02:50:12;;;;;;;;;7.25;7.25;;;;;25.54;55.22;100736.50;2104894;28;46606;-57
2023/07/16 02:51:12;;;;;;;;;8.50;8.50;;;;;25.56;55.17;100734.53;2104633;28;46624;-57
2023/07/16 02:52:12;;;;;;;;;5.25;5.25;;;;;25.57;55.24;100740.81;2105163;28;45577;-57
2023/07/16 02:53:13;;;;;;;;;4.50;4.50;;;;;25.53;55.63;100738.34;2104602;28;46234;-56
2023/07/16 02:54:13;;;;;;;;;8.50;7.50;;;;;25.51;55.18;100737.59;2104693;28;47017;-55
2023/07/16 02:55:13;;;;;;;;;4.25;4.25;;;;;25.48;55.61;100732.44;2105139;28;46406;-56
2023/07/16 02:56:14;;;;;;;;;6.50;4.00;;;;;25.46;55.42;100745.28;2104696;28;46228;-57
2023/07/16 02:57:14;;;;;;;;;9.00;9.00;;;;;25.44;56.03;100739.13;2105173;28;46252;-56
2023/07/16 02:58:14;;;;;;;;;8.00;4.00;;;;;25.43;55.41;100739.25;2104747;28;46632;-55
2023/07/16 02:59:15;;;;;;;;;6.00;6.00;;;;;25.41;55.61;100741.22;2104589;28;45893;-58
2023/07/16 03:00:15;;;;;;;;;5.00;5.00;;;;;25.39;55.42;100737.75;2104950;28;46103;-56
2023/07/16 03:01:16;;;;;;;;;7.00;5.75;;;;;25.43;56.09;100737.41;2096111;28;46808;-56
2023/07/16 03:02:16;;;;;;;;;5.75;3.75;;;;;25.44;55.31;100747.28;2096022;28;46366;-56
2023/07/16 03:03:16;;;;;;;;;9.25;5.75;;;;;25.45;55.55;100742.72;2104484;28;46616;-57
2023/07/16 03:04:17;;;;;;;;;6.00;6.00;;;;;25.44;55.67;100743.69;2092013;28;46149;-56
2023/07/16 03:05:17;;;;;;;;;6.00;6.00;;;;;25.41;56.18;100747.53;2086629;28;46430;-56
2023/07/16 03:06:17;;;;;;;;;7.50;6.50;;;;;25.41;55.77;100752.09;2086908;28;46191;-56
2023/07/16 03:07:18;;;;;;;;;6.50;6.25;;;;;25.41;56.05;100750.25;2095558;28;46189;-55
2023/07/16 03:08:18;;;;;;;;;8.25;7.25;;;;;25.35;56.11;100749.88;2095784;28;46729;-57
2023/07/16 03:09:18;;;;;;;;;5.50;5.00;;;;;25.34;56.40;100748.16;2095796;28;46551;-57
2023/07/16 03:10:20;;;;;;;;;5.00;4.50;;;;;25.30;56.74;100757.56;2104814;28;46228;-57
2023/07/16 03:11:20;;;;;;;;;5.80;5.80;;;;;25.39;56.79;100748.63;2104230;28;46407;-58
2023/07/16 03:12:20;;;;;;;;;8.00;7.00;;;;;25.39;56.85;100754.06;2104773;28;46821;-57
2023/07/16 03:13:20;;;;;;;;;6.25;6.25;;;;;25.37;56.40;100746.03;2096022;28;46479;-58
2023/07/16 03:14:21;;;;;;;;;7.00;7.00;;;;;25.31;56.78;100756.56;2095630;28;46208;-57
2023/07/16 03:15:21;;;;;;;;;5.00;5.00;;;;;25.31;56.82;100756.56;2095859;28;46218;-57
2023/07/16 03:16:21;;;;;;;;;5.50;5.00;;;;;25.27;56.84;100744.22;2095969;28;46369;-56
2023/07/16 03:17:22;;;;;;;;;5.25;5.25;;;;;25.21;57.37;100751.91;2104640;28;45715;-56
2023/07/16 03:18:22;;;;;;;;;3.00;1.00;;;;;25.29;56.79;100754.00;2104908;28;46299;-56
2023/07/16 03:19:22;;;;;;;;;8.00;6.50;;;;;25.32;57.04;100751.00;2104518;28;46418;-57
2023/07/16 03:20:23;;;;;;;;;7.00;7.00;;;;;25.27;56.90;100750.50;2095855;28;46250;-57
2023/07/16 03:21:23;;;;;;;;;6.25;6.25;;;;;25.28;57.47;100751.38;2095855;28;45092;-60
2023/07/16 03:22:23;;;;;;;;;6.25;6.00;;;;;25.23;57.40;100754.47;2095540;28;46881;-55
2023/07/16 03:23:24;;;;;;;;;6.75;5.75;;;;;25.11;57.43;100756.34;2095738;28;46448;-57
2023/07/16 03:24:24;;;;;;;;;8.50;7.25;;;;;25.27;57.12;100752.38;2104733;28;47128;-56
2023/07/16 03:25:24;;;;;;;;;7.25;7.25;;;;;25.15;58.20;100749.66;2104345;28;46589;-57
2023/07/16 03:26:25;;;;;;;;;9.25;6.50;;;;;25.17;57.91;100750.44;2105546;28;46593;-60
2023/07/16 03:27:25;;;;;;;;;6.00;6.00;;;;;25.21;57.54;100746.47;2104847;28;46287;-55
2023/07/16 03:28:25;;;;;;;;;6.75;4.25;;;;;25.24;58.08;100753.50;2104579;28;46211;-57
2023/07/16 03:29:26;;;;;;;;;7.50;6.75;;;;;25.23;57.96;100755.34;2096448;28;46209;-57
2023/07/16 03:30:26;;;;;;;;;6.50;6.50;;;;;25.20;57.84;100754.75;2095814;28;46281;-56
2023/07/16 03:31:26;;;;;;;;;8.25;8.25;;;;;25.21;57.59;100748.31;2104771;28;46517;-56
2023/07/16 03:32:27;;;;;;;;;2.75;2.75;;;;;25.15;58.36;100757.81;2104743;28;46595;-56
2023/07/16 03:33:27;;;;;;;;;10.00;7.00;;;;;25.25;58.08;100755.22;2104783;28;46252;-57
2023/07/16 03:34:27;;;;;;;;;7.00;7.00;;;;;25.29;57.64;100759.44;2104898;28;46342;-57
2023/07/16 03:35:28;;;;;;;;;5.50;5.50;;;;;25.29;58.13;100762.13;2104358;28;46337;-57
2023/07/16 03:36:28;;;;;;;;;6.00;6.00;;;;;25.28;57.99;100756.81;2104794;28;46655;-57
2023/07/16 03:37:28;;;;;;;;;8.50;8.50;;;;;25.28;58.18;100751.38;2104910;28;46665;-57
2023/07/16 03:38:28;;;;;;;;;8.00;7.00;;;;;25.24;58.42;100754.34;2104368;28;46527;-58
2023/07/16 03:39:29;;;;;;;;;8.50;8.00;;;;;25.26;58.41;100756.94;2104697;28;46617;-57
2023/07/16 03:40:30;;;;;;;;;9.00;7.00;;;;;25.12;58.38;100757.22;2104637;28;46269;-53
2023/07/16 03:41:30;;;;;;;;;7.25;6.50;;;;;25.23;58.60;100763.50;2104483;28;46302;-57
2023/07/16 03:42:30;;;;;;;;;7.00;7.00;;;;;25.12;58.66;100752.66;2104564;28;46671;-57
2023/07/16 03:43:31;;;;;;;;;7.50;7.50;;;;;25.13;58.87;100761.66;2104377;28;46383;-58
2023/07/16 03:44:31;;;;;;;;;11.00;9.50;;;;;25.11;58.96;100767.22;2104704;28;46232;-56
2023/07/16 03:45:31;;;;;;;;;5.00;5.00;;;;;25.29;58.24;100764.00;2104853;28;46642;-57
2023/07/16 03:46:31;;;;;;;;;9.25;7.75;;;;;25.34;58.41;100761.75;2104287;28;46231;-56
2023/07/16 03:47:32;;;;;;;;;6.25;6.00;;;;;25.35;58.12;100772.50;2095679;28;46488;-58
2023/07/16 03:48:32;;;;;;;;;8.25;6.75;;;;;25.17;59.21;100764.00;2095093;28;46197;-57
2023/07/16 03:49:32;;;;;;;;;7.75;7.00;;;;;25.14;59.00;100766.09;2105810;28;46420;-59
2023/07/16 03:50:34;;;;;;;;;9.50;7.50;;;;;25.12;59.41;100766.22;2105718;28;46157;-56
2023/07/16 03:51:34;;;;;;;;;7.00;7.00;;;;;25.11;59.47;100763.63;2106059;28;46413;-54
2023/07/16 03:52:35;;;;;;;;;7.25;6.00;;;;;24.94;59.58;100770.41;2106159;28;46833;-57
2023/07/16 03:53:35;;;;;;;;;8.00;8.00;;;;;25.02;59.33;100772.53;2106134;28;46596;-55
2023/07/16 03:54:35;;;;;;;;;7.50;7.50;;;;;25.15;59.13;100779.53;2105599;28;46354;-57
2023/07/16 03:55:36;;;;;;;;;5.75;5.75;;;;;25.18;58.69;100775.75;2106030;28;46232;-55
2023/07/16 03:56:36;;;;;;;;;5.25;5.25;;;;;25.16;59.33;100775.88;2105954;28;46607;-55
2023/07/16 03:57:37;;;;;;;;;7.25;7.25;;;;;25.16;59.04;100769.56;2105829;28;46753;-57
2023/07/16 03:58:37;;;;;;;;;8.00;6.75;;;;;24.91;59.82;100774.25;2106048;28;46000;-57
2023/07/16 03:59:37;;;;;;;;;6.50;6.50;;;;;24.96;59.89;100782.00;2105745;28;46776;-57
2023/07/16 04:00:37;;;;;;;;;7.00;7.00;;;;;25.08;59.78;100777.47;2106210;28;46630;-56
2023/07/16 04:01:38;;;;;;;;;8.50;7.50;;;;;25.10;59.48;100779.06;2097030;28;46314;-57
2023/07/16 04:02:38;;;;;;;;;6.00;6.00;;;;;24.93;60.05;100774.97;2088593;28;46433;-53
2023/07/16 04:03:38;;;;;;;;;6.75;5.25;;;;;24.92;59.88;100778.69;2096880;28;46441;-57
2023/07/16 04:04:39;;;;;;;;;6.75;6.75;;;;;24.93;59.98;100784.97;2105866;27;46270;-57
2023/07/16 04:05:39;;;;;;;;;7.00;7.00;;;;;24.95;60.02;100778.44;2105556;27;46543;-56
2023/07/16 04:06:39;;;;;;;;;7.50;7.00;;;;;24.95;60.08;100783.00;2105933;28;46473;-55
2023/07/16 04:07:40;;;;;;;;;4.00;4.00;;;;;24.94;60.04;100776.72;2106075;28;46040;-56
2023/07/16 04:08:40;;;;;;;;;6.75;6.75;;;;;25.08;60.06;100775.63;2105091;28;46699;-56
2023/07/16 04:09:40;;;;;;;;;9.25;6.75;;;;;25.10;60.18;100787.22;2105415;28;46570;-57
2023/07/16 04:10:41;;;;;;;;;8.75;8.75;;;;;25.08;59.56;100780.19;2104984;28;46735;-57
2023/07/16 04:11:41;;;;;;;;;8.25;8.00;;;;;24.94;59.75;100789.41;2105951;28;46657;-57
2023/07/16 04:12:42;;;;;;;;;8.00;6.00;;;;;25.01;59.80;100781.66;2105874;28;46472;-56
2023/07/16 04:13:42;;;;;;;;;6.00;6.00;;;;;24.93;59.88;100777.69;2105517;28;46568;-57
2023/07/16 04:14:42;;;;;;;;;8.00;6.50;;;;;24.99;60.17;100778.19;2105757;28;46494;-57
2023/07/16 04:15:43;;;;;;;;;7.50;5.25;;;;;25.03;59.67;100783.28;2105954;28;46747;-55
2023/07/16 04:16:43;;;;;;;;;5.00;5.00;;;;;25.04;59.74;100792.28;2106067;28;46649;-57
2023/07/16 04:17:44;;;;;;;;;7.25;7.25;;;;;25.02;59.80;100789.69;2105847;28;46315;-57
2023/07/16 04:18:44;;;;;;;;;6.75;6.75;;;;;24.87;60.39;100791.75;2096077;28;45665;-57
2023/07/16 04:19:44;;;;;;;;;7.25;5.75;;;;;24.95;60.58;100785.72;2096318;28;46436;-57
2023/07/16 04:20:45;;;;;;;;;8.25;8.25;;;;;24.98;59.93;100782.75;2105451;28;46595;-58
2023/07/16 04:21:45;;;;;;;;;9.50;8.00;;;;;25.01;59.85;100789.81;2105794;28;46009;-57
2023/07/16 04:22:45;;;;;;;;;5.25;5.25;;;;;25.00;60.29;100788.91;2106026;28;46307;-58
2023/07/16 04:23:46;;;;;;;;;9.25;9.25;;;;;25.00;60.23;100780.75;2105520;28;46334;-57
2023/07/16 04:24:46;;;;;;;;;9.00;8.00;;;;;25.01;60.40;100789.81;2105939;28;46195;-57
2023/07/16 04:25:46;;;;;;;;;6.50;6.00;;;;;25.00;60.01;100785.34;2105402;28;46726;-54
2023/07/16 04:26:46;;;;;;;;;7.25;6.50;;;;;25.00;60.39;100786.19;2105940;28;46305;-57
2023/07/16 04:27:47;;;;;;;;;10.00;10.00;;;;;25.03;60.20;100794.16;2105715;28;46699;-57
2023/07/16 04:28:47;;;;;;;;;6.50;5.75;;;;;25.05;60.21;100799.44;2087569;28;46217;-56
2023/07/16 04:29:47;;;;;;;;;7.75;7.25;;;;;25.07;60.36;100800.19;2088057;28;46760;-57
2023/07/16 04:30:48;;;;;;;;;6.75;6.25;;;;;25.06;60.47;100801.19;2105454;28;46239;-57
2023/07/16 04:31:48;;;;;;;;;9.50;8.00;;;;;25.05;60.32;100794.03;2105479;28;46313;-55
2023/07/16 04:32:48;;;;;;;;;9.00;9.00;;;;;25.03;60.45;100794.16;2105751;28;45522;-55
2023/07/16 04:33:49;;;;;;;;;8.75;6.00;;;;;25.01;60.62;100798.81;2105832;28;46691;-57
2023/07/16 04:34:49;;;;;;;;;9.00;8.00;;;;;25.00;60.26;100807.91;2105841;28;46468;-57
2023/07/16 04:35:49;;;;;;;;;6.25;6.00;;;;;25.01;60.22;100798.81;2105408;28;46236;-56
2023/07/16 04:36:50;;;;;;;;;10.50;7.25;;;;;25.02;60.75;100799.69;2105719;28;46523;-55
2023/07/16 04:37:50;;;;;;;;;9.50;8.00;;;;;25.00;60.54;100796.19;2105717;28;46547;-57
2023/07/16 04:38:50;;;;;;;;;7.50;7.50;;;;;24.98;60.52;100807.19;2105418;28;46599;-58
2023/07/16 04:39:50;;;;;;;;;6.00;6.00;;;;;24.90;60.99;100799.66;2105893;28;46292;-57
2023/07/16 04:40:51;;;;;;;;;7.75;7.00;;;;;24.85;61.26;100803.72;2105656;28;46401;-58
2023/07/16 04:41:51;;;;;;;;;8.50;6.25;;;;;24.73;62.25;100802.84;2105897;28;46540;-57
2023/07/16 04:42:51;;;;;;;;;7.50;7.50;;;;;24.71;62.01;100795.81;2105433;28;46194;-57
2023/07/16 04:43:52;;;;;;;;;9.75;6.00;;;;;24.69;61.89;100801.38;2105967;28;46309;-57